Greenville, New Jersey
Current Conditions -  °F | °C
As of 11:51 AM on Friday 28 Nov 2014 (Local Time) from KEWR Reporting Station
Broken Clouds Broken Clouds  
Wind Chill: 28°   Ceiling: 4100
Heat Index: 36°   Visibility: 10mi
Dew Point: 19°   Wind: 13mph
Humidity: 50%   Direction: 310°NW
Pressure: 30.17"   Gusts: 22mph
Location:  40.696°N, 74.0853°W
Report Text: KEWR 281651Z 31011G19KT 10SM BKN041 02/M07 A3017 RMK AO2 SLP216 T00221072
Loading
Personal Weather Stations






























Interactive Weather Map New forecast layout! Learn more

10-Day Weather Forecast

Advertisements
Track Severe Weather on mobile